Time;durP1;ratioP1;P1;durP2;ratioP2;P2;SDS_P1;SDS_P2;PMS_P1;PMS_P2;Temp;Humidity;BMP_temperature;BMP_pressure;BME280_temperature;BME280_humidity;BME280_pressure;Samples;Min_cycle;Max_cycle;Signal;HPM_P1;HPM_P2
2023/06/29 00:01:15;;;;;;;5.65;4.15;;;;;;;16.14;100.00;99589.28;5032129;28;20025;-84
2023/06/29 00:03:41;;;;;;;5.32;3.78;;;;;;;16.10;100.00;99596.53;5032049;28;20033;-83
2023/06/29 00:06:07;;;;;;;5.03;3.80;;;;;;;16.09;100.00;99600.09;5032147;28;20038;-83
2023/06/29 00:08:36;;;;;;;5.85;4.40;;;;;;;16.00;100.00;99594.63;5032018;28;20137;-83
2023/06/29 00:11:04;;;;;;;5.10;4.00;;;;;;;16.08;100.00;99614.16;5032028;28;20048;-83
2023/06/29 00:13:29;;;;;;;5.28;3.95;;;;;;;15.91;100.00;99586.44;5032073;28;20057;-83
2023/06/29 00:15:55;;;;;;;5.68;4.30;;;;;;;15.91;100.00;99604.84;5032005;28;20113;-83
2023/06/29 00:18:20;;;;;;;4.72;4.07;;;;;;;15.75;100.00;99577.94;5031675;28;20021;-83
2023/06/29 00:20:46;;;;;;;5.28;4.20;;;;;;;15.85;100.00;99607.91;5032106;28;20022;-83
2023/06/29 00:23:11;;;;;;;7.20;4.40;;;;;;;15.85;100.00;99618.41;5031783;28;20413;-84
2023/06/29 00:25:38;;;;;;;5.63;4.10;;;;;;;15.66;100.00;99586.47;5030919;28;20477;-85
2023/06/29 00:28:04;;;;;;;5.88;3.53;;;;;;;15.69;100.00;99602.03;5031687;28;20029;-83
2023/06/29 00:30:29;;;;;;;4.70;4.30;;;;;;;15.50;100.00;99570.06;5032001;28;20037;-83
2023/06/29 00:32:55;;;;;;;6.25;4.53;;;;;;;15.70;100.00;99606.31;5031472;28;20037;-83
2023/06/29 00:35:20;;;;;;;4.93;4.22;;;;;;;15.74;100.00;99626.16;5031931;28;20018;-83
2023/06/29 00:37:45;;;;;;;5.55;4.78;;;;;;;15.57;100.00;99601.03;5030517;28;20083;-83
2023/06/29 00:40:11;;;;;;;5.78;4.93;;;;;;;15.58;100.00;99607.94;5030259;28;20049;-83
2023/06/29 00:42:37;;;;;;;4.60;4.20;;;;;;;15.65;100.00;99614.50;5035206;28;20021;-83
2023/06/29 00:45:03;;;;;;;5.15;4.20;;;;;;;15.60;100.00;99606.09;5033982;28;20026;-83
2023/06/29 00:47:30;;;;;;;4.65;4.25;;;;;;;15.56;100.00;99601.16;5035187;28;20026;-83
2023/06/29 00:49:56;;;;;;;8.50;4.93;;;;;;;15.42;100.00;99583.69;5033897;28;20055;-83
2023/06/29 00:52:21;;;;;;;5.63;4.20;;;;;;;15.32;100.00;99572.13;5035527;28;20021;-83
2023/06/29 00:54:47;;;;;;;8.07;5.35;;;;;;;15.32;100.00;99572.97;5033884;28;20036;-83
2023/06/29 00:57:13;;;;;;;5.22;4.40;;;;;;;15.43;100.00;99596.72;5035056;28;20021;-83
2023/06/29 00:59:38;;;;;;;4.90;4.47;;;;;;;15.47;100.00;99605.25;5034978;28;20105;-85
2023/06/29 01:02:04;;;;;;;5.40;4.30;;;;;;;15.45;100.00;99607.94;5034583;28;20051;-83
2023/06/29 01:04:32;;;;;;;5.25;4.75;;;;;;;15.43;100.00;99614.25;5035015;28;20029;-82
2023/06/29 01:07:03;;;;;;;5.93;4.78;;;;;;;15.38;100.00;99606.69;5034701;28;20018;-82
2023/06/29 01:09:30;;;;;;;6.40;4.78;;;;;;;15.41;100.00;99613.50;5034642;28;20033;-85
2023/06/29 01:11:57;;;;;;;5.43;4.50;;;;;;;15.33;100.00;99608.75;5034736;28;20033;-83
2023/06/29 01:14:25;;;;;;;6.35;4.85;;;;;;;15.19;100.00;99587.88;5034683;28;20484;-83
2023/06/29 01:16:51;;;;;;;6.80;5.10;;;;;;;15.19;100.00;99598.38;5034388;28;20373;-83
2023/06/29 01:19:21;;;;;;;6.13;4.82;;;;;;;15.25;100.00;99612.84;5034575;28;20115;-83
2023/06/29 01:22:21;;;;;;;4.97;4.15;;;;;;;15.29;100.00;99627.44;5034676;28;20026;-83
2023/06/29 01:24:47;;;;;;;5.93;5.18;;;;;;;15.09;100.00;99602.53;5032044;28;20595;-83
2023/06/29 01:27:13;;;;;;;6.57;4.50;;;;;;;15.00;100.00;99588.25;5031734;28;20065;-83
2023/06/29 01:29:38;;;;;;;6.50;4.68;;;;;;;15.17;100.00;99619.47;5031772;28;20509;-83
2023/06/29 01:32:08;;;;;;;7.70;4.30;;;;;;;15.15;100.00;99610.00;5031998;28;20037;-83
2023/06/29 01:34:35;;;;;;;7.28;4.78;;;;;;;15.07;100.00;99607.03;5031886;28;20033;-83
2023/06/29 01:37:12;;;;;;;5.00;4.60;;;;;;;15.11;100.00;99616.38;5031639;28;20497;-83
2023/06/29 01:39:47;;;;;;;6.55;5.13;;;;;;;15.08;100.00;99616.59;5031476;28;20064;-83
2023/06/29 01:42:13;;;;;;;5.82;4.38;;;;;;;14.98;100.00;99601.47;5031622;28;20049;-83
2023/06/29 01:44:39;;;;;;;5.07;4.25;;;;;;;15.02;100.00;99603.88;5031773;28;20738;-83
2023/06/29 01:47:08;;;;;;;5.20;4.55;;;;;;;14.95;100.00;99606.06;5031392;28;20116;-83
2023/06/29 01:49:35;;;;;;;6.40;4.75;;;;;;;14.87;100.00;99596.06;5014952;28;20493;-85
2023/06/29 01:52:00;;;;;;;7.07;4.75;;;;;;;14.93;100.00;99597.47;5013769;28;20021;-85
2023/06/29 01:54:25;;;;;;;4.82;4.40;;;;;;;14.70;100.00;99564.84;5030831;28;20041;-82
2023/06/29 01:56:51;;;;;;;5.47;4.80;;;;;;;14.83;100.00;99591.13;5031249;28;20112;-82
2023/06/29 01:59:16;;;;;;;5.22;4.72;;;;;;;14.87;100.00;99597.84;5031214;28;20061;-85
2023/06/29 02:01:41;;;;;;;8.13;4.80;;;;;;;14.81;100.00;99593.84;5032748;28;20146;-85
2023/06/29 02:04:07;;;;;;;6.45;5.10;;;;;;;14.69;100.00;99573.66;5033438;28;20044;-82
2023/06/29 02:06:32;;;;;;;6.80;5.05;;;;;;;14.60;100.00;99564.63;5033610;28;20026;-82
2023/06/29 02:08:57;;;;;;;5.97;5.05;;;;;;;14.70;100.00;99589.28;5032267;28;20033;-82
2023/06/29 02:11:23;;;;;;;5.88;4.93;;;;;;;14.75;100.00;99604.75;5033825;28;20045;-83
2023/06/29 02:13:48;;;;;;;6.03;4.72;;;;;;;14.64;100.00;99589.69;5033574;28;20022;-82
2023/06/29 02:16:14;;;;;;;6.72;4.95;;;;;;;14.69;100.00;99615.63;5033563;28;20420;-82
2023/06/29 02:18:39;;;;;;;5.90;5.30;;;;;;;14.63;100.00;99608.16;5033341;28;20492;-82
2023/06/29 02:21:04;;;;;;;6.00;4.50;;;;;;;14.57;100.00;99596.25;5033131;28;20026;-83
2023/06/29 02:23:30;;;;;;;5.55;4.50;;;;;;;14.47;100.00;99590.75;5032070;28;20034;-82
2023/06/29 02:25:55;;;;;;;6.03;5.05;;;;;;;14.56;100.00;99596.38;5033051;28;20025;-84
2023/06/29 02:28:20;;;;;;;8.88;5.22;;;;;;;14.59;100.00;99602.25;5033539;28;20045;-83
2023/06/29 02:30:46;;;;;;;5.30;4.78;;;;;;;14.52;100.00;99594.88;5033338;28;20021;-83
2023/06/29 02:33:11;;;;;;;6.80;4.85;;;;;;;14.36;100.00;99572.22;5033429;28;20025;-83
2023/06/29 02:35:36;;;;;;;6.03;4.68;;;;;;;14.36;100.00;99579.25;5033551;28;20026;-83
2023/06/29 02:38:02;;;;;;;6.60;4.90;;;;;;;14.31;100.00;99576.09;5032963;28;20036;-83
2023/06/29 02:40:27;;;;;;;5.80;5.22;;;;;;;14.41;100.00;99603.38;5033343;28;20077;-83
2023/06/29 02:42:52;;;;;;;5.25;4.75;;;;;;;14.26;100.00;99586.03;5033463;28;20025;-83
2023/06/29 02:45:18;;;;;;;5.20;4.70;;;;;;;14.40;100.00;99612.19;5032574;28;20072;-83
2023/06/29 02:47:43;;;;;;;5.88;4.75;;;;;;;14.04;100.00;99560.34;5033197;28;20057;-82
2023/06/29 02:50:09;;;;;;;6.20;5.60;;;;;;;14.15;100.00;99584.06;5032914;28;20041;-82
2023/06/29 02:52:34;;;;;;;6.47;5.30;;;;;;;14.26;100.00;99606.97;5031511;28;20021;-83
2023/06/29 02:54:59;;;;;;;5.90;5.25;;;;;;;14.23;100.00;99605.38;5033084;28;20120;-83
2023/06/29 02:57:25;;;;;;;6.78;5.50;;;;;;;14.06;100.00;99579.41;5033060;28;20022;-83
2023/06/29 02:59:50;;;;;;;7.13;5.70;;;;;;;14.13;100.00;99593.81;5031779;28;20021;-83
2023/06/29 03:02:15;;;;;;;5.40;4.90;;;;;;;14.09;100.00;99585.28;5032503;28;20021;-83
2023/06/29 03:04:42;;;;;;;6.78;5.85;;;;;;;14.15;100.00;99597.16;5032181;28;20075;-83
2023/06/29 03:07:07;;;;;;;6.32;4.78;;;;;;;14.08;100.00;99582.78;5032279;28;20441;-83
2023/06/29 03:09:32;;;;;;;5.60;4.88;;;;;;;14.27;100.00;99614.72;5032489;28;20057;-83
2023/06/29 03:11:58;;;;;;;7.25;5.35;;;;;;;14.04;100.00;99581.28;5032350;28;20036;-83
2023/06/29 03:14:23;;;;;;;7.50;5.80;;;;;;;14.23;100.00;99619.31;5033171;28;20397;-83
2023/06/29 03:16:49;;;;;;;6.93;5.47;;;;;;;14.03;100.00;99585.69;5032611;28;20458;-83
2023/06/29 03:19:14;;;;;;;6.88;5.72;;;;;;;14.25;100.00;99618.41;5032388;28;20030;-83
2023/06/29 03:21:40;;;;;;;7.57;6.40;;;;;;;14.19;100.00;99609.97;5031051;28;20033;-83
2023/06/29 03:24:05;;;;;;;6.50;5.57;;;;;;;14.18;100.00;99605.66;5032984;28;20369;-83
2023/06/29 03:26:30;;;;;;;5.82;5.28;;;;;;;14.31;100.00;99625.88;5032774;28;20488;-83
2023/06/29 03:28:56;;;;;;;6.03;5.20;;;;;;;14.34;100.00;99625.69;5032574;28;20030;-83
2023/06/29 03:31:21;;;;;;;6.72;5.43;;;;;;;14.36;100.00;99622.00;5046496;28;20370;-83
2023/06/29 03:33:46;;;;;;;5.88;5.38;;;;;;;14.31;100.00;99608.38;5052333;28;20028;-83
2023/06/29 03:36:12;;;;;;;8.38;5.68;;;;;;;14.43;100.00;99630.34;5051977;28;20028;-83
2023/06/29 03:38:38;;;;;;;8.23;5.57;;;;;;;14.40;100.00;99623.50;5050990;28;20104;-83
2023/06/29 03:41:03;;;;;;;6.55;5.65;;;;;;;14.40;100.00;99607.78;5052100;28;20025;-83
2023/06/29 03:43:28;;;;;;;9.05;6.15;;;;;;;14.47;100.00;99610.88;5052663;28;20033;-83
2023/06/29 03:45:54;;;;;;;5.90;5.15;;;;;;;14.39;100.00;99597.41;5052586;28;20037;-83
2023/06/29 03:48:20;;;;;;;6.47;5.50;;;;;;;14.53;100.00;99609.66;5052364;28;20183;-83
2023/06/29 03:50:46;;;;;;;5.95;5.38;;;;;;;14.59;100.00;99611.91;5052285;28;20469;-83
2023/06/29 03:53:11;;;;;;;6.90;6.18;;;;;;;14.84;100.00;99642.63;5052136;28;20029;-83
2023/06/29 03:55:36;;;;;;;6.97;5.82;;;;;;;14.82;100.00;99627.00;5052354;28;20028;-83
2023/06/29 03:58:02;;;;;;;8.60;6.28;;;;;;;14.95;100.00;99634.91;5052193;28;20025;-83
2023/06/29 04:00:27;;;;;;;6.70;5.82;;;;;;;14.98;100.00;99632.94;5050778;28;20025;-83
2023/06/29 04:02:52;;;;;;;7.65;5.97;;;;;;;14.98;100.00;99617.19;5052170;28;20033;-83
2023/06/29 04:05:17;;;;;;;8.52;6.38;;;;;;;15.17;100.00;99632.59;5051645;28;20028;-83
2023/06/29 04:07:43;;;;;;;9.05;6.50;;;;;;;15.29;100.00;99636.16;5052097;28;20108;-83
2023/06/29 04:10:08;;;;;;;8.15;6.28;;;;;;;15.43;100.00;99622.97;5050810;28;20476;-83
2023/06/29 04:12:34;;;;;;;6.18;5.35;;;;;;;15.91;100.00;99643.41;5052219;28;20493;-83
2023/06/29 04:14:59;;;;;;;6.97;5.78;;;;;;;16.20;100.00;99642.22;5052234;28;20024;-83
2023/06/29 04:17:24;;;;;;;9.30;5.90;;;;;;;16.42;100.00;99624.94;5055113;28;20115;-83
2023/06/29 04:19:50;;;;;;;6.95;5.55;;;;;;;16.93;100.00;99654.56;5055484;28;20110;-83
2023/06/29 04:22:15;;;;;;;6.82;5.00;;;;;;;17.36;100.00;99653.19;5055127;28;20479;-83
2023/06/29 04:24:40;;;;;;;6.53;5.13;;;;;;;17.87;98.50;99664.25;5054304;28;20032;-83
2023/06/29 04:27:06;;;;;;;6.10;5.25;;;;;;;18.60;94.35;99649.75;5055342;28;20028;-82
2023/06/29 04:29:31;;;;;;;6.72;4.90;;;;;;;19.57;88.71;99626.84;5055314;28;20025;-83
2023/06/29 04:31:58;;;;;;;6.63;4.93;;;;;;;21.10;82.70;99652.34;5055341;28;20025;-83
2023/06/29 04:34:23;;;;;;;4.97;4.38;;;;;;;22.13;78.38;99628.66;5054915;28;20116;-82
2023/06/29 04:36:48;;;;;;;7.68;4.43;;;;;;;22.89;74.84;99656.75;5055292;28;20183;-83
2023/06/29 04:39:14;;;;;;;7.20;4.35;;;;;;;22.48;74.83;99635.06;5054859;28;20053;-83
2023/06/29 04:41:41;;;;;;;5.15;4.65;;;;;;;21.97;76.46;99630.22;5055460;28;20030;-82
2023/06/29 04:44:10;;;;;;;5.25;4.47;;;;;;;21.67;78.29;99646.22;5055020;28;20514;-82
2023/06/29 04:46:39;;;;;;;6.18;4.47;;;;;;;21.49;79.34;99661.19;5055098;28;20104;-82
2023/06/29 04:49:06;;;;;;;5.53;4.15;;;;;;;21.61;79.21;99660.03;5054688;28;20043;-82
2023/06/29 04:51:35;;;;;;;6.00;3.85;;;;;;;22.13;77.65;99655.19;5055280;28;20032;-82
2023/06/29 04:54:01;;;;;;;4.80;3.90;;;;;;;23.16;74.24;99637.28;5054905;28;20032;-82
2023/06/29 04:56:27;;;;;;;4.30;3.90;;;;;;;24.53;70.08;99642.84;5055249;28;20025;-83
2023/06/29 04:58:52;;;;;;;5.97;4.65;;;;;;;25.35;67.77;99652.69;5054821;28;20377;-83
2023/06/29 05:01:17;;;;;;;3.97;3.58;;;;;;;25.47;66.55;99636.34;5054585;28;20155;-83
2023/06/29 05:03:43;;;;;;;4.90;4.40;;;;;;;25.14;67.16;99647.84;5053379;28;20024;-82
2023/06/29 05:06:08;;;;;;;4.15;3.72;;;;;;;24.47;68.96;99614.19;5054390;28;20025;-82
2023/06/29 05:08:33;;;;;;;6.05;3.67;;;;;;;24.00;70.16;99620.78;5054712;28;20040;-83
2023/06/29 05:10:59;;;;;;;6.10;3.78;;;;;;;23.89;71.51;99639.69;5054780;28;20465;-83
2023/06/29 05:13:24;;;;;;;4.78;4.20;;;;;;;23.93;70.71;99624.25;5054437;28;20033;-82
2023/06/29 05:15:49;;;;;;;4.38;3.78;;;;;;;24.47;69.75;99614.19;5054440;28;20112;-82
2023/06/29 05:18:15;;;;;;;5.50;4.13;;;;;;;25.65;66.73;99623.66;5054186;28;20036;-82
2023/06/29 05:20:41;;;;;;;5.10;3.63;;;;;;;27.02;63.95;99638.50;5054736;28;20020;-82
2023/06/29 05:23:09;;;;;;;6.05;4.10;;;;;;;27.34;62.92;99616.88;5054456;28;20460;-82
2023/06/29 05:25:35;;;;;;;5.93;4.20;;;;;;;27.22;63.03;99641.56;5054557;28;20035;-82
2023/06/29 05:28:00;;;;;;;5.78;3.70;;;;;;;26.56;64.66;99611.75;5054383;28;20040;-83
2023/06/29 05:30:26;;;;;;;5.10;4.00;;;;;;;26.15;65.91;99635.09;5054338;28;20418;-82
2023/06/29 05:32:51;;;;;;;3.75;3.45;;;;;;;25.86;66.00;99623.97;5054176;28;20029;-83
2023/06/29 05:35:17;;;;;;;4.75;3.90;;;;;;;26.15;66.33;99643.09;5054314;28;20364;-83
2023/06/29 05:37:42;;;;;;;4.38;3.67;;;;;;;26.57;65.06;99616.06;5054096;28;20021;-83
2023/06/29 05:40:08;;;;;;;5.25;3.45;;;;;;;27.75;62.78;99637.09;5053778;28;20053;-83
2023/06/29 05:42:33;;;;;;;6.60;3.95;;;;;;;28.76;59.94;99644.44;5054127;28;20070;-83
2023/06/29 05:44:59;;;;;;;6.72;3.83;;;;;;;28.44;60.42;99645.72;5054091;28;20029;-82
2023/06/29 05:47:24;;;;;;;4.15;3.33;;;;;;;27.74;62.22;99640.81;5052418;28;20539;-83
2023/06/29 05:49:50;;;;;;;5.43;3.63;;;;;;;27.20;63.39;99639.06;5053902;28;20025;-83
2023/06/29 05:52:15;;;;;;;5.68;3.55;;;;;;;26.82;64.58;99641.63;5054163;28;20119;-82
2023/06/29 05:54:40;;;;;;;4.30;3.78;;;;;;;26.63;65.34;99639.41;5054168;28;20032;-82
2023/06/29 05:57:06;;;;;;;4.03;3.63;;;;;;;26.62;64.97;99640.41;5053817;28;20460;-83
2023/06/29 05:59:31;;;;;;;4.30;3.28;;;;;;;26.47;64.86;99623.47;5050570;28;20111;-82
2023/06/29 06:01:57;;;;;;;5.32;3.53;;;;;;;26.46;64.65;99625.28;5053567;28;20052;-83
2023/06/29 06:04:22;;;;;;;3.78;3.28;;;;;;;26.65;64.74;99644.59;5053511;28;20108;-83
2023/06/29 06:06:47;;;;;;;4.55;2.95;;;;;;;26.70;64.27;99632.34;5052321;28;20064;-83
2023/06/29 06:09:13;;;;;;;4.50;3.60;;;;;;;26.87;64.18;99639.25;5052986;28;20037;-83
2023/06/29 06:11:38;;;;;;;4.50;3.30;;;;;;;26.96;63.94;99633.84;5053549;28;20440;-83
2023/06/29 06:14:04;;;;;;;5.30;3.72;;;;;;;27.21;63.31;99643.41;5053337;28;20155;-83
2023/06/29 06:16:29;;;;;;;4.88;3.30;;;;;;;27.28;62.08;99638.19;5053055;28;20021;-83
2023/06/29 06:18:54;;;;;;;3.30;3.00;;;;;;;27.48;61.78;99647.38;5052049;28;20033;-83
2023/06/29 06:21:20;;;;;;;3.45;3.15;;;;;;;27.78;61.17;99647.47;5052705;28;20150;-83
2023/06/29 06:23:46;;;;;;;4.63;3.20;;;;;;;27.96;60.96;99633.72;5052894;28;20032;-83
2023/06/29 06:26:11;;;;;;;4.05;3.10;;;;;;;28.27;59.87;99626.31;5052613;28;20609;-84
2023/06/29 06:28:37;;;;;;;2.92;2.65;;;;;;;28.79;58.64;99638.72;5052998;28;20142;-84
2023/06/29 06:31:02;;;;;;;4.45;3.13;;;;;;;29.55;56.85;99659.69;5052594;28;20377;-84
2023/06/29 06:33:30;;;;;;;5.32;2.88;;;;;;;30.43;56.20;99652.03;5047782;28;20033;-83
2023/06/29 06:35:56;;;;;;;3.25;2.70;;;;;;;31.61;53.22;99631.81;5043196;28;20380;-83
2023/06/29 06:38:21;;;;;;;5.10;2.85;;;;;;;32.58;51.38;99621.25;5031985;28;20044;-83
2023/06/29 06:40:47;;;;;;;5.00;3.05;;;;;;;33.68;49.88;99654.16;5032594;28;20045;-83
2023/06/29 06:43:12;;;;;;;5.78;2.85;;;;;;;34.53;48.79;99650.78;5042320;28;20374;-83
2023/06/29 06:45:38;;;;;;;3.22;2.90;;;;;;;35.42;47.45;99647.19;5052661;28;20036;-83
2023/06/29 06:48:04;;;;;;;3.42;2.80;;;;;;;36.41;45.98;99646.47;5052503;28;20083;-83
2023/06/29 06:50:29;;;;;;;3.88;2.97;;;;;;;37.74;43.87;99651.56;5052316;28;20106;-83
2023/06/29 06:52:55;;;;;;;4.10;3.00;;;;;;;38.67;42.81;99642.47;5052382;28;20057;-83
2023/06/29 06:55:20;;;;;;;4.38;3.08;;;;;;;39.23;41.43;99644.94;5052203;28;20021;-83
2023/06/29 06:57:45;;;;;;;3.33;3.00;;;;;;;38.75;42.80;99652.06;5052276;28;20108;-83
2023/06/29 07:00:12;;;;;;;3.03;2.72;;;;;;;39.56;41.76;99635.66;5052159;28;20039;-83
2023/06/29 07:02:38;;;;;;;4.13;3.08;;;;;;;40.37;40.33;99648.97;5052210;28;20078;-83
2023/06/29 07:05:05;;;;;;;2.85;2.63;;;;;;;38.70;41.27;99630.25;5052326;28;20468;-84
2023/06/29 07:07:30;;;;;;;3.35;3.05;;;;;;;37.91;42.01;99622.47;5052431;28;20056;-83
2023/06/29 07:09:55;;;;;;;4.25;3.10;;;;;;;36.19;43.52;99632.69;5052535;28;20448;-83
2023/06/29 07:12:21;;;;;;;4.45;3.00;;;;;;;35.53;44.71;99628.53;5029781;28;20071;-83
2023/06/29 07:14:46;;;;;;;3.88;3.10;;;;;;;36.10;43.88;99645.00;5030147;28;20041;-83
2023/06/29 07:17:11;;;;;;;3.08;2.75;;;;;;;35.38;44.78;99626.22;5030125;28;20037;-83
2023/06/29 07:19:37;;;;;;;3.58;3.28;;;;;;;35.33;45.01;99612.56;5029923;28;20583;-83
2023/06/29 07:22:02;;;;;;;3.20;2.83;;;;;;;36.50;44.30;99622.53;5030087;28;20040;-83
2023/06/29 07:24:28;;;;;;;4.13;2.97;;;;;;;38.03;42.44;99625.09;5030088;28;20033;-82
2023/06/29 07:26:53;;;;;;;3.65;3.08;;;;;;;38.53;40.92;99635.78;5030059;28;20426;-83
2023/06/29 07:29:18;;;;;;;4.43;3.03;;;;;;;38.17;41.21;99621.72;5029973;28;20065;-83
2023/06/29 07:31:44;;;;;;;3.97;3.15;;;;;;;38.42;41.09;99634.84;5029923;28;20033;-83
2023/06/29 07:34:09;;;;;;;4.13;2.67;;;;;;;39.28;40.31;99627.84;5030117;28;20025;-83
2023/06/29 07:36:36;;;;;;;5.22;2.97;;;;;;;39.55;40.56;99630.47;5029828;28;20030;-83
2023/06/29 07:39:02;;;;;;;3.63;2.60;;;;;;;39.03;40.50;99618.34;5029593;28;20056;-83
2023/06/29 07:41:28;;;;;;;5.60;3.25;;;;;;;37.54;41.89;99630.31;5030045;28;20033;-83
2023/06/29 07:43:56;;;;;;;3.65;2.60;;;;;;;35.98;42.76;99616.00;5046198;28;20045;-83
2023/06/29 07:46:22;;;;;;;8.57;3.30;;;;;;;35.69;43.99;99612.38;5050917;28;20036;-83
2023/06/29 07:48:48;;;;;;;3.67;2.80;;;;;;;36.92;42.63;99602.16;5052374;28;20112;-83
2023/06/29 07:51:14;;;;;;;4.97;3.30;;;;;;;36.83;42.53;99598.19;5055461;28;20028;-83
2023/06/29 07:53:40;;;;;;;2.97;2.70;;;;;;;36.92;43.16;99607.59;5054645;28;20029;-83
2023/06/29 07:56:05;;;;;;;2.80;2.60;;;;;;;37.44;41.67;99612.00;5056096;28;20025;-85
2023/06/29 07:58:31;;;;;;;3.65;2.58;;;;;;;35.93;43.72;99596.06;5055615;28;20021;-82
2023/06/29 08:00:56;;;;;;;3.63;3.25;;;;;;;35.55;44.44;99602.00;5055940;28;20044;-83
2023/06/29 08:03:22;;;;;;;3.88;2.67;;;;;;;35.63;44.40;99607.06;5055997;28;20029;-83
2023/06/29 08:05:48;;;;;;;2.90;2.53;;;;;;;35.58;43.87;99604.25;5056075;28;20036;-83
2023/06/29 08:08:13;;;;;;;3.60;2.65;;;;;;;34.35;44.43;99603.75;5055819;28;20457;-83
2023/06/29 08:10:39;;;;;;;2.95;2.63;;;;;;;32.97;46.71;99585.94;5055629;28;20051;-83
2023/06/29 08:13:04;;;;;;;5.20;3.15;;;;;;;31.92;49.02;99606.09;5056044;28;20040;-85
2023/06/29 08:15:29;;;;;;;3.67;2.95;;;;;;;30.74;49.89;99595.91;5055252;28;20051;-84
2023/06/29 08:17:55;;;;;;;3.35;2.95;;;;;;;29.88;52.15;99589.34;5056008;28;20029;-84
2023/06/29 08:20:22;;;;;;;3.60;3.30;;;;;;;29.32;52.87;99614.28;5055019;28;20372;-84
2023/06/29 08:22:48;;;;;;;5.35;3.00;;;;;;;28.92;54.55;99607.72;5055766;28;20032;-84
2023/06/29 08:25:14;;;;;;;3.40;3.00;;;;;;;28.61;53.39;99587.38;5054360;28;20035;-85
2023/06/29 08:27:40;;;;;;;3.78;3.08;;;;;;;28.65;54.70;99610.09;5055517;28;20029;-85
2023/06/29 08:30:06;;;;;;;4.53;2.78;;;;;;;28.58;54.56;99582.41;5052008;28;20037;-84
2023/06/29 08:32:31;;;;;;;4.32;3.17;;;;;;;28.38;54.39;99584.03;5055227;28;20102;-85
2023/06/29 08:34:57;;;;;;;3.53;2.92;;;;;;;28.01;55.22;99546.47;5055263;28;20029;-84
2023/06/29 08:37:23;;;;;;;3.80;3.30;;;;;;;28.15;55.59;99566.22;5055175;28;20037;-84
2023/06/29 08:39:48;;;;;;;4.95;3.53;;;;;;;28.06;56.72;99592.28;5055535;28;20064;-84
2023/06/29 08:42:13;;;;;;;6.93;3.00;;;;;;;27.75;56.50;99571.03;5053773;28;20063;-84
2023/06/29 08:44:39;;;;;;;6.28;3.20;;;;;;;27.60;57.49;99579.03;5054961;28;20409;-84
2023/06/29 08:47:05;;;;;;;3.33;3.03;;;;;;;27.69;56.19;99587.81;5054016;28;20029;-84
2023/06/29 08:49:34;;;;;;;3.33;2.92;;;;;;;27.64;56.81;99592.84;5055183;28;20427;-84
2023/06/29 08:52:03;;;;;;;3.17;2.60;;;;;;;27.42;57.31;99553.63;5055336;28;20477;-84
2023/06/29 08:54:31;;;;;;;3.58;3.13;;;;;;;27.58;57.52;99583.72;5054970;28;20060;-84
2023/06/29 08:57:00;;;;;;;3.22;2.92;;;;;;;27.69;57.33;99587.81;5054903;28;20025;-84
2023/06/29 08:59:27;;;;;;;3.80;3.00;;;;;;;27.65;56.57;99575.81;5054686;28;20033;-84
2023/06/29 09:01:53;;;;;;;2.95;2.65;;;;;;;27.49;56.70;99567.94;5053251;28;20146;-84
2023/06/29 09:04:18;;;;;;;3.17;2.88;;;;;;;27.39;55.38;99592.28;5054816;28;20599;-84
2023/06/29 09:06:43;;;;;;;4.18;2.83;;;;;;;27.17;55.80;99572.56;5054703;28;20037;-84
2023/06/29 09:09:09;;;;;;;3.53;2.83;;;;;;;27.07;54.51;99571.97;5054797;28;20029;-84
2023/06/29 09:11:35;;;;;;;2.67;2.47;;;;;;;26.85;54.68;99574.47;5053150;28;20422;-84
2023/06/29 09:14:06;;;;;;;3.58;2.70;;;;;;;26.90;56.81;99570.44;5054160;28;20041;-84
2023/06/29 09:16:34;;;;;;;3.95;2.63;;;;;;;27.03;57.70;99587.53;5054924;28;20021;-85
2023/06/29 09:19:00;;;;;;;4.00;2.60;;;;;;;27.00;56.74;99582.53;5052194;28;20052;-85
2023/06/29 09:21:28;;;;;;;4.43;2.83;;;;;;;27.08;56.06;99585.16;5047698;28;20112;-85
2023/06/29 09:23:55;;;;;;;3.10;2.47;;;;;;;27.01;56.84;99580.69;5054673;28;20029;-85
2023/06/29 09:26:23;;;;;;;4.95;3.00;;;;;;;26.83;55.98;99562.28;5054524;28;20431;-85
2023/06/29 09:28:48;;;;;;;3.67;2.67;;;;;;;27.04;56.37;99594.53;5054131;28;20047;-85
2023/06/29 09:31:14;;;;;;;5.10;2.70;;;;;;;27.07;56.31;99580.81;5046919;28;20029;-85
2023/06/29 09:33:39;;;;;;;2.75;2.55;;;;;;;27.05;55.79;99558.78;5047778;28;20047;-85
2023/06/29 09:36:07;;;;;;;3.22;2.70;;;;;;;27.27;55.86;99578.53;5054535;28;20388;-85
2023/06/29 09:38:32;;;;;;;3.22;2.50;;;;;;;27.27;54.61;99557.13;5050485;28;20384;-85
2023/06/29 09:40:59;;;;;;;4.53;3.00;;;;;;;27.20;55.93;99568.72;5054504;28;20045;-85
2023/06/29 09:43:29;;;;;;;3.10;2.80;;;;;;;26.94;55.17;99583.25;5054005;28;20033;-85
2023/06/29 09:46:17;;;;;;;4.45;2.65;;;;;;;26.89;55.82;99577.63;5053908;28;20040;-85
2023/06/29 09:48:45;;;;;;;3.35;2.60;;;;;;;26.72;56.13;99579.59;5053661;28;20056;-85
2023/06/29 09:51:18;;;;;;;3.40;2.47;;;;;;;26.45;56.22;99558.72;5053872;28;20078;-85
2023/06/29 09:53:45;;;;;;;3.15;2.85;;;;;;;26.31;56.45;99554.91;5047626;28;20037;-85
2023/06/29 09:56:10;;;;;;;2.90;2.45;;;;;;;26.13;55.44;99555.19;5052701;28;20098;-85
2023/06/29 09:58:36;;;;;;;3.85;2.92;;;;;;;25.81;56.16;99540.94;5050995;28;20476;-84
2023/06/29 10:01:03;;;;;;;3.95;2.67;;;;;;;25.94;57.70;99544.91;5034906;28;20366;-83
2023/06/29 10:03:31;;;;;;;2.60;2.40;;;;;;;26.25;56.95;99569.81;5033616;28;20033;-83
2023/06/29 10:06:19;;;;;;;5.22;2.72;;;;;;;26.40;57.36;99563.72;5033500;28;20037;-83
2023/06/29 10:08:49;;;;;;;3.22;2.40;;;;;;;26.52;56.42;99573.84;5033342;28;20037;-84
2023/06/29 10:11:16;;;;;;;3.20;2.78;;;;;;;26.50;55.96;99567.03;5033727;28;20060;-84
2023/06/29 10:13:47;;;;;;;3.50;2.72;;;;;;;26.49;55.88;99562.69;5031233;28;20071;-84
2023/06/29 10:16:16;;;;;;;4.18;2.53;;;;;;;26.28;56.03;99542.75;5033594;28;20041;-84
2023/06/29 10:18:46;;;;;;;2.70;2.42;;;;;;;26.32;55.13;99564.59;5031936;28;20036;-84
2023/06/29 10:21:11;;;;;;;3.20;2.28;;;;;;;26.12;55.75;99556.16;5033037;28;20116;-84
2023/06/29 10:23:40;;;;;;;4.18;2.60;;;;;;;26.01;56.87;99524.53;5032162;28;20108;-84
2023/06/29 10:26:09;;;;;;;4.13;2.63;;;;;;;26.16;55.98;99546.81;5033340;28;20083;-84
2023/06/29 10:28:35;;;;;;;2.70;2.50;;;;;;;26.04;56.38;99521.50;5033159;28;20120;-84
2023/06/29 10:31:00;;;;;;;2.72;2.35;;;;;;;26.09;57.46;99527.19;5032223;28;20026;-84
2023/06/29 10:33:26;;;;;;;2.63;2.40;;;;;;;26.21;57.52;99543.59;5033181;28;20027;-84
2023/06/29 10:36:02;;;;;;;3.05;2.22;;;;;;;26.22;56.79;99543.47;5110548;27;20903;-85
2023/06/29 10:38:34;;;;;;;4.13;2.45;;;;;;;26.21;57.01;99541.81;5110335;28;20514;-84
2023/06/29 10:41:00;;;;;;;2.70;2.40;;;;;;;26.18;57.31;99527.97;5110034;28;20528;-84
2023/06/29 10:43:27;;;;;;;4.60;2.53;;;;;;;26.20;54.29;99528.59;5110291;28;20031;-84
2023/06/29 10:45:52;;;;;;;2.97;2.20;;;;;;;26.10;53.83;99540.34;5110144;28;20039;-84
2023/06/29 10:48:19;;;;;;;2.80;2.35;;;;;;;26.01;54.72;99528.03;5110230;28;20102;-85
2023/06/29 10:50:46;;;;;;;4.07;2.40;;;;;;;25.94;55.03;99516.38;5110083;28;20085;-84
2023/06/29 10:53:14;;;;;;;3.28;2.83;;;;;;;25.99;54.56;99535.38;5110220;28;20345;-84
2023/06/29 10:55:43;;;;;;;3.67;2.20;;;;;;;25.59;54.28;99523.00;5109470;28;20024;-84
2023/06/29 10:58:12;;;;;;;3.53;2.08;;;;;;;25.61;54.06;99545.81;5125976;28;20024;-85
2023/06/29 11:00:38;;;;;;;3.40;2.38;;;;;;;25.51;54.34;99539.84;5110004;28;20050;-84
2023/06/29 11:03:03;;;;;;;3.22;2.72;;;;;;;25.58;53.80;99535.50;5110228;28;20479;-84
2023/06/29 11:05:32;;;;;;;2.78;2.30;;;;;;;25.49;53.92;99527.69;5110174;28;20066;-85
2023/06/29 11:07:57;;;;;;;4.13;2.20;;;;;;;25.61;54.67;99535.13;5109745;28;20024;-84
2023/06/29 11:10:23;;;;;;;2.40;2.00;;;;;;;25.60;54.72;99533.47;5109613;28;20027;-84
2023/06/29 11:12:50;;;;;;;2.78;2.00;;;;;;;25.59;55.85;99523.81;5109849;28;20062;-84
2023/06/29 11:15:17;;;;;;;5.15;3.05;;;;;;;25.61;55.18;99511.13;5109513;28;20084;-84
2023/06/29 11:17:43;;;;;;;3.88;2.20;;;;;;;25.74;55.35;99520.44;5109470;28;20081;-84
2023/06/29 11:20:20;;;;;;;2.30;2.10;;;;;;;25.80;56.19;99519.78;5109634;28;20055;-84
2023/06/29 11:22:46;;;;;;;2.40;2.20;;;;;;;25.82;56.83;99509.75;5110323;28;20360;-85
2023/06/29 11:25:16;;;;;;;3.38;2.38;;;;;;;25.83;55.91;99517.63;5109882;28;20062;-84